sensor_id;sensor_type;location;lat;lon;timestamp;temperature;humidity
30308;DHT22;17114;52.314;8.910;2022-12-07T00:03:46;4.10;99.90
30308;DHT22;17114;52.314;8.910;2022-12-07T00:06:14;4.10;99.90
30308;DHT22;17114;52.314;8.910;2022-12-07T00:08:41;4.10;99.90
30308;DHT22;17114;52.314;8.910;2022-12-07T00:13:37;4.20;99.90
30308;DHT22;17114;52.314;8.910;2022-12-07T00:16:08;4.10;99.90
30308;DHT22;17114;52.314;8.910;2022-12-07T00:18:36;4.10;99.90
30308;DHT22;17114;52.314;8.910;2022-12-07T00:21:09;4.10;99.90
30308;DHT22;17114;52.314;8.910;2022-12-07T00:23:36;4.10;99.90
30308;DHT22;17114;52.314;8.910;2022-12-07T00:26:12;4.20;99.90
30308;DHT22;17114;52.314;8.910;2022-12-07T00:28:38;4.20;99.90
30308;DHT22;17114;52.314;8.910;2022-12-07T00:31:15;4.20;99.90
30308;DHT22;17114;52.314;8.910;2022-12-07T00:33:43;4.20;99.90
30308;DHT22;17114;52.314;8.910;2022-12-07T00:36:13;4.20;99.90
30308;DHT22;17114;52.314;8.910;2022-12-07T00:38:40;4.20;99.90
30308;DHT22;17114;52.314;8.910;2022-12-07T00:41:14;4.20;99.90
30308;DHT22;17114;52.314;8.910;2022-12-07T00:43:43;4.20;99.90
30308;DHT22;17114;52.314;8.910;2022-12-07T00:46:10;4.20;99.90
30308;DHT22;17114;52.314;8.910;2022-12-07T00:48:38;4.20;99.90
30308;DHT22;17114;52.314;8.910;2022-12-07T00:51:05;4.10;99.90
30308;DHT22;17114;52.314;8.910;2022-12-07T00:53:36;4.30;99.90
30308;DHT22;17114;52.314;8.910;2022-12-07T00:56:11;4.30;99.90
30308;DHT22;17114;52.314;8.910;2022-12-07T00:58:38;4.30;99.90
30308;DHT22;17114;52.314;8.910;2022-12-07T01:01:06;4.30;99.90
30308;DHT22;17114;52.314;8.910;2022-12-07T01:03:33;4.30;99.90
30308;DHT22;17114;52.314;8.910;2022-12-07T01:06:01;4.30;99.90
30308;DHT22;17114;52.314;8.910;2022-12-07T01:08:28;4.30;99.90
30308;DHT22;17114;52.314;8.910;2022-12-07T01:13:26;4.30;99.90
30308;DHT22;17114;52.314;8.910;2022-12-07T01:15:57;4.30;99.90
30308;DHT22;17114;52.314;8.910;2022-12-07T01:18:31;4.30;99.90
30308;DHT22;17114;52.314;8.910;2022-12-07T01:23:32;4.30;99.90
30308;DHT22;17114;52.314;8.910;2022-12-07T01:26:01;4.30;99.90
30308;DHT22;17114;52.314;8.910;2022-12-07T01:28:28;4.40;99.90
30308;DHT22;17114;52.314;8.910;2022-12-07T01:31:12;4.40;99.90
30308;DHT22;17114;52.314;8.910;2022-12-07T01:33:43;4.50;99.90
30308;DHT22;17114;52.314;8.910;2022-12-07T01:38:43;4.40;99.90
30308;DHT22;17114;52.314;8.910;2022-12-07T01:41:11;4.40;99.90
30308;DHT22;17114;52.314;8.910;2022-12-07T01:44:17;4.40;99.90
30308;DHT22;17114;52.314;8.910;2022-12-07T01:46:46;4.40;99.90
30308;DHT22;17114;52.314;8.910;2022-12-07T01:49:29;4.30;99.90
30308;DHT22;17114;52.314;8.910;2022-12-07T01:52:17;4.30;99.90
30308;DHT22;17114;52.314;8.910;2022-12-07T01:54:47;4.20;99.90
30308;DHT22;17114;52.314;8.910;2022-12-07T01:57:17;4.10;99.90
30308;DHT22;17114;52.314;8.910;2022-12-07T01:59:47;4.10;99.90
30308;DHT22;17114;52.314;8.910;2022-12-07T02:02:34;4.00;99.90
30308;DHT22;17114;52.314;8.910;2022-12-07T02:05:04;4.00;99.90
30308;DHT22;17114;52.314;8.910;2022-12-07T02:07:34;3.90;99.90
30308;DHT22;17114;52.314;8.910;2022-12-07T02:12:40;3.80;99.90
30308;DHT22;17114;52.314;8.910;2022-12-07T02:15:07;3.70;99.90
30308;DHT22;17114;52.314;8.910;2022-12-07T02:17:58;3.70;99.90
30308;DHT22;17114;52.314;8.910;2022-12-07T02:20:31;3.70;99.90
30308;DHT22;17114;52.314;8.910;2022-12-07T02:26:26;3.60;99.90
30308;DHT22;17114;52.314;8.910;2022-12-07T02:31:43;3.60;99.90
30308;DHT22;17114;52.314;8.910;2022-12-07T02:34:32;3.70;99.90
30308;DHT22;17114;52.314;8.910;2022-12-07T02:37:03;3.80;99.90
30308;DHT22;17114;52.314;8.910;2022-12-07T02:39:44;3.70;99.90
30308;DHT22;17114;52.314;8.910;2022-12-07T02:42:17;3.70;99.90
30308;DHT22;17114;52.314;8.910;2022-12-07T02:44:46;3.80;99.90
30308;DHT22;17114;52.314;8.910;2022-12-07T02:47:16;3.70;99.90
30308;DHT22;17114;52.314;8.910;2022-12-07T02:49:44;3.70;99.90
30308;DHT22;17114;52.314;8.910;2022-12-07T02:52:11;3.70;99.90
30308;DHT22;17114;52.314;8.910;2022-12-07T02:54:38;3.60;99.90
30308;DHT22;17114;52.314;8.910;2022-12-07T03:00:14;3.60;99.90
30308;DHT22;17114;52.314;8.910;2022-12-07T03:11:13;3.60;99.90
30308;DHT22;17114;52.314;8.910;2022-12-07T03:13:52;3.60;99.90
30308;DHT22;17114;52.314;8.910;2022-12-07T03:16:25;3.60;99.90
30308;DHT22;17114;52.314;8.910;2022-12-07T03:19:11;3.50;99.90
30308;DHT22;17114;52.314;8.910;2022-12-07T03:21:42;3.40;99.90
30308;DHT22;17114;52.314;8.910;2022-12-07T03:24:15;3.50;99.90
30308;DHT22;17114;52.314;8.910;2022-12-07T03:26:53;3.40;99.90
30308;DHT22;17114;52.314;8.910;2022-12-07T03:29:28;3.40;99.90
30308;DHT22;17114;52.314;8.910;2022-12-07T03:32:01;3.40;99.90
30308;DHT22;17114;52.314;8.910;2022-12-07T03:34:34;3.30;99.90
30308;DHT22;17114;52.314;8.910;2022-12-07T03:37:08;3.30;99.90
30308;DHT22;17114;52.314;8.910;2022-12-07T03:39:41;3.30;99.90
30308;DHT22;17114;52.314;8.910;2022-12-07T03:42:12;3.40;99.90
30308;DHT22;17114;52.314;8.910;2022-12-07T03:44:41;3.10;99.90
30308;DHT22;17114;52.314;8.910;2022-12-07T03:47:23;3.20;99.90
30308;DHT22;17114;52.314;8.910;2022-12-07T03:49:54;3.20;99.90
30308;DHT22;17114;52.314;8.910;2022-12-07T03:52:38;3.20;99.90
30308;DHT22;17114;52.314;8.910;2022-12-07T03:57:51;3.20;99.90
30308;DHT22;17114;52.314;8.910;2022-12-07T04:00:19;3.10;99.90
30308;DHT22;17114;52.314;8.910;2022-12-07T04:02:46;3.10;99.90
30308;DHT22;17114;52.314;8.910;2022-12-07T04:05:14;3.20;99.90
30308;DHT22;17114;52.314;8.910;2022-12-07T04:07:41;3.20;99.90
30308;DHT22;17114;52.314;8.910;2022-12-07T04:10:08;3.20;99.90
30308;DHT22;17114;52.314;8.910;2022-12-07T04:12:35;3.30;99.90
30308;DHT22;17114;52.314;8.910;2022-12-07T04:15:03;3.20;99.90
30308;DHT22;17114;52.314;8.910;2022-12-07T04:17:30;3.30;99.90
30308;DHT22;17114;52.314;8.910;2022-12-07T04:19:56;3.40;99.90
30308;DHT22;17114;52.314;8.910;2022-12-07T04:22:23;3.30;99.90
30308;DHT22;17114;52.314;8.910;2022-12-07T04:24:50;3.30;99.90
30308;DHT22;17114;52.314;8.910;2022-12-07T04:27:17;3.40;99.90
30308;DHT22;17114;52.314;8.910;2022-12-07T04:29:44;3.40;99.90
30308;DHT22;17114;52.314;8.910;2022-12-07T04:32:10;3.30;99.90
30308;DHT22;17114;52.314;8.910;2022-12-07T04:34:37;3.40;99.90
30308;DHT22;17114;52.314;8.910;2022-12-07T04:37:04;3.30;99.90
30308;DHT22;17114;52.314;8.910;2022-12-07T04:39:32;3.40;99.90
30308;DHT22;17114;52.314;8.910;2022-12-07T04:42:00;3.50;99.90
30308;DHT22;17114;52.314;8.910;2022-12-07T04:44:28;3.50;99.90
30308;DHT22;17114;52.314;8.910;2022-12-07T04:46:56;3.40;99.90
30308;DHT22;17114;52.314;8.910;2022-12-07T04:49:24;3.50;99.90
30308;DHT22;17114;52.314;8.910;2022-12-07T04:51:51;3.40;99.90
30308;DHT22;17114;52.314;8.910;2022-12-07T04:54:18;3.20;99.90
30308;DHT22;17114;52.314;8.910;2022-12-07T04:56:45;3.30;99.90
30308;DHT22;17114;52.314;8.910;2022-12-07T04:59:13;3.20;99.90
30308;DHT22;17114;52.314;8.910;2022-12-07T05:01:40;3.20;99.90
30308;DHT22;17114;52.314;8.910;2022-12-07T05:04:08;3.20;99.90
30308;DHT22;17114;52.314;8.910;2022-12-07T05:06:35;3.20;99.90
30308;DHT22;17114;52.314;8.910;2022-12-07T05:09:03;3.20;99.90
30308;DHT22;17114;52.314;8.910;2022-12-07T05:11:30;3.20;99.90
30308;DHT22;17114;52.314;8.910;2022-12-07T05:16:39;3.20;99.90
30308;DHT22;17114;52.314;8.910;2022-12-07T05:19:06;3.20;99.90
30308;DHT22;17114;52.314;8.910;2022-12-07T05:21:33;3.30;99.90
30308;DHT22;17114;52.314;8.910;2022-12-07T05:24:01;3.30;99.90
30308;DHT22;17114;52.314;8.910;2022-12-07T05:26:27;3.30;99.90
30308;DHT22;17114;52.314;8.910;2022-12-07T05:28:55;3.30;99.90
30308;DHT22;17114;52.314;8.910;2022-12-07T05:31:24;3.40;99.90
30308;DHT22;17114;52.314;8.910;2022-12-07T05:33:51;3.40;99.90
30308;DHT22;17114;52.314;8.910;2022-12-07T05:36:18;3.40;99.90
30308;DHT22;17114;52.314;8.910;2022-12-07T05:38:46;3.40;99.90
30308;DHT22;17114;52.314;8.910;2022-12-07T05:41:15;3.40;99.90
30308;DHT22;17114;52.314;8.910;2022-12-07T05:44:01;3.40;99.90
30308;DHT22;17114;52.314;8.910;2022-12-07T05:46:28;3.40;99.90
30308;DHT22;17114;52.314;8.910;2022-12-07T05:48:55;3.40;99.90
30308;DHT22;17114;52.314;8.910;2022-12-07T05:51:22;3.40;99.90
30308;DHT22;17114;52.314;8.910;2022-12-07T05:53:49;3.40;99.90
30308;DHT22;17114;52.314;8.910;2022-12-07T05:56:16;3.40;99.90
30308;DHT22;17114;52.314;8.910;2022-12-07T05:58:42;3.40;99.90
30308;DHT22;17114;52.314;8.910;2022-12-07T06:01:28;3.40;99.90
30308;DHT22;17114;52.314;8.910;2022-12-07T06:03:55;3.40;99.90
30308;DHT22;17114;52.314;8.910;2022-12-07T06:06:22;3.40;99.90
30308;DHT22;17114;52.314;8.910;2022-12-07T06:08:49;3.40;99.90
30308;DHT22;17114;52.314;8.910;2022-12-07T06:11:16;3.50;99.90
30308;DHT22;17114;52.314;8.910;2022-12-07T06:14:01;3.50;99.90
30308;DHT22;17114;52.314;8.910;2022-12-07T06:16:28;3.60;99.90
30308;DHT22;17114;52.314;8.910;2022-12-07T06:18:55;3.50;99.90
30308;DHT22;17114;52.314;8.910;2022-12-07T06:21:21;3.40;99.90
30308;DHT22;17114;52.314;8.910;2022-12-07T06:23:48;3.40;99.90
30308;DHT22;17114;52.314;8.910;2022-12-07T06:26:15;3.30;99.90
30308;DHT22;17114;52.314;8.910;2022-12-07T06:28:42;3.30;99.90
30308;DHT22;17114;52.314;8.910;2022-12-07T06:31:09;3.30;99.90
30308;DHT22;17114;52.314;8.910;2022-12-07T06:33:40;3.20;99.90
30308;DHT22;17114;52.314;8.910;2022-12-07T06:36:07;3.20;99.90
30308;DHT22;17114;52.314;8.910;2022-12-07T06:38:34;3.30;99.90
30308;DHT22;17114;52.314;8.910;2022-12-07T06:41:02;3.30;99.90
30308;DHT22;17114;52.314;8.910;2022-12-07T06:43:29;3.20;99.90
30308;DHT22;17114;52.314;8.910;2022-12-07T06:45:55;3.20;99.90
30308;DHT22;17114;52.314;8.910;2022-12-07T06:48:22;3.20;99.90
30308;DHT22;17114;52.314;8.910;2022-12-07T06:50:50;3.20;99.90
30308;DHT22;17114;52.314;8.910;2022-12-07T06:53:21;3.20;99.90
30308;DHT22;17114;52.314;8.910;2022-12-07T06:55:48;3.20;99.90
30308;DHT22;17114;52.314;8.910;2022-12-07T06:58:15;3.20;99.90
30308;DHT22;17114;52.314;8.910;2022-12-07T07:00:42;3.10;99.90
30308;DHT22;17114;52.314;8.910;2022-12-07T07:03:09;3.10;99.90
30308;DHT22;17114;52.314;8.910;2022-12-07T07:05:36;3.10;99.90
30308;DHT22;17114;52.314;8.910;2022-12-07T07:08:03;2.90;99.90
30308;DHT22;17114;52.314;8.910;2022-12-07T07:10:48;3.00;99.90
30308;DHT22;17114;52.314;8.910;2022-12-07T07:13:15;2.90;99.90
30308;DHT22;17114;52.314;8.910;2022-12-07T07:15:42;3.00;99.90
30308;DHT22;17114;52.314;8.910;2022-12-07T07:18:09;3.10;99.90
30308;DHT22;17114;52.314;8.910;2022-12-07T07:20:37;3.00;99.90
30308;DHT22;17114;52.314;8.910;2022-12-07T07:23:04;3.10;99.90
30308;DHT22;17114;52.314;8.910;2022-12-07T07:25:31;3.10;99.90
30308;DHT22;17114;52.314;8.910;2022-12-07T07:27:58;3.10;99.90
30308;DHT22;17114;52.314;8.910;2022-12-07T07:30:25;3.30;99.90
30308;DHT22;17114;52.314;8.910;2022-12-07T07:33:00;3.20;99.90
30308;DHT22;17114;52.314;8.910;2022-12-07T07:35:28;3.10;99.90
30308;DHT22;17114;52.314;8.910;2022-12-07T07:37:55;3.20;99.90
30308;DHT22;17114;52.314;8.910;2022-12-07T07:40:22;3.20;99.90
30308;DHT22;17114;52.314;8.910;2022-12-07T07:42:51;3.20;99.90
30308;DHT22;17114;52.314;8.910;2022-12-07T07:45:19;3.20;99.90
30308;DHT22;17114;52.314;8.910;2022-12-07T07:47:46;3.20;99.90
30308;DHT22;17114;52.314;8.910;2022-12-07T07:50:13;3.20;99.90
30308;DHT22;17114;52.314;8.910;2022-12-07T07:52:40;3.30;99.90
30308;DHT22;17114;52.314;8.910;2022-12-07T07:55:07;3.30;99.90
30308;DHT22;17114;52.314;8.910;2022-12-07T07:57:36;3.20;99.90
30308;DHT22;17114;52.314;8.910;2022-12-07T08:00:12;3.20;99.90
30308;DHT22;17114;52.314;8.910;2022-12-07T08:02:40;3.20;99.90
30308;DHT22;17114;52.314;8.910;2022-12-07T08:05:07;3.20;99.90
30308;DHT22;17114;52.314;8.910;2022-12-07T08:07:34;3.30;99.90
30308;DHT22;17114;52.314;8.910;2022-12-07T08:10:07;3.20;99.90
30308;DHT22;17114;52.314;8.910;2022-12-07T08:12:38;3.30;99.90
30308;DHT22;17114;52.314;8.910;2022-12-07T08:15:26;3.30;99.90
30308;DHT22;17114;52.314;8.910;2022-12-07T08:17:53;3.40;99.90
30308;DHT22;17114;52.314;8.910;2022-12-07T08:20:21;3.40;99.90
30308;DHT22;17114;52.314;8.910;2022-12-07T08:22:47;3.40;99.90
30308;DHT22;17114;52.314;8.910;2022-12-07T08:25:14;3.30;99.90
30308;DHT22;17114;52.314;8.910;2022-12-07T08:27:41;3.40;99.90
30308;DHT22;17114;52.314;8.910;2022-12-07T08:30:08;3.40;99.90
30308;DHT22;17114;52.314;8.910;2022-12-07T08:32:35;3.40;99.90
30308;DHT22;17114;52.314;8.910;2022-12-07T08:35:02;3.50;99.90
30308;DHT22;17114;52.314;8.910;2022-12-07T08:37:29;3.50;99.90
30308;DHT22;17114;52.314;8.910;2022-12-07T08:39:56;3.50;99.90
30308;DHT22;17114;52.314;8.910;2022-12-07T08:42:22;3.50;99.90
30308;DHT22;17114;52.314;8.910;2022-12-07T08:44:53;3.50;99.90
30308;DHT22;17114;52.314;8.910;2022-12-07T08:47:20;3.50;99.90
30308;DHT22;17114;52.314;8.910;2022-12-07T08:49:49;3.60;99.90
30308;DHT22;17114;52.314;8.910;2022-12-07T08:52:17;3.60;99.90
30308;DHT22;17114;52.314;8.910;2022-12-07T08:54:44;3.60;99.90
30308;DHT22;17114;52.314;8.910;2022-12-07T08:57:12;3.60;99.90
30308;DHT22;17114;52.314;8.910;2022-12-07T08:59:39;3.60;99.90
30308;DHT22;17114;52.314;8.910;2022-12-07T09:02:06;3.60;99.90
30308;DHT22;17114;52.314;8.910;2022-12-07T09:04:33;3.60;99.90
30308;DHT22;17114;52.314;8.910;2022-12-07T09:07:00;3.70;99.90
30308;DHT22;17114;52.314;8.910;2022-12-07T09:09:27;3.70;99.90
30308;DHT22;17114;52.314;8.910;2022-12-07T09:11:54;3.80;99.90
30308;DHT22;17114;52.314;8.910;2022-12-07T09:14:22;3.90;99.90
30308;DHT22;17114;52.314;8.910;2022-12-07T09:16:49;3.80;99.90
30308;DHT22;17114;52.314;8.910;2022-12-07T09:19:15;3.90;99.90
30308;DHT22;17114;52.314;8.910;2022-12-07T09:21:43;3.70;99.90
30308;DHT22;17114;52.314;8.910;2022-12-07T09:24:09;3.80;99.90
30308;DHT22;17114;52.314;8.910;2022-12-07T09:26:37;3.80;99.90
30308;DHT22;17114;52.314;8.910;2022-12-07T09:29:06;4.10;99.90
30308;DHT22;17114;52.314;8.910;2022-12-07T09:31:36;4.50;99.90
30308;DHT22;17114;52.314;8.910;2022-12-07T09:34:03;4.90;99.90
30308;DHT22;17114;52.314;8.910;2022-12-07T09:36:32;5.20;99.90
30308;DHT22;17114;52.314;8.910;2022-12-07T09:38:59;5.50;99.90
30308;DHT22;17114;52.314;8.910;2022-12-07T09:41:27;5.50;99.90
30308;DHT22;17114;52.314;8.910;2022-12-07T09:44:07;5.40;99.90
30308;DHT22;17114;52.314;8.910;2022-12-07T09:46:38;5.40;99.90
30308;DHT22;17114;52.314;8.910;2022-12-07T09:49:11;5.20;99.90
30308;DHT22;17114;52.314;8.910;2022-12-07T09:51:39;5.20;99.90
30308;DHT22;17114;52.314;8.910;2022-12-07T09:54:06;4.80;99.90
30308;DHT22;17114;52.314;8.910;2022-12-07T09:56:34;4.80;99.90
30308;DHT22;17114;52.314;8.910;2022-12-07T09:59:02;4.60;99.90
30308;DHT22;17114;52.314;8.910;2022-12-07T10:01:32;4.60;99.90
30308;DHT22;17114;52.314;8.910;2022-12-07T10:04:14;4.70;99.90
30308;DHT22;17114;52.314;8.910;2022-12-07T10:06:42;4.70;99.90
30308;DHT22;17114;52.314;8.910;2022-12-07T10:09:11;4.80;99.90
30308;DHT22;17114;52.314;8.910;2022-12-07T10:12:05;4.70;99.90
30308;DHT22;17114;52.314;8.910;2022-12-07T10:14:34;4.80;99.90
30308;DHT22;17114;52.314;8.910;2022-12-07T10:17:38;4.50;99.90
30308;DHT22;17114;52.314;8.910;2022-12-07T10:20:25;4.50;99.90
30308;DHT22;17114;52.314;8.910;2022-12-07T10:23:03;4.50;99.90
30308;DHT22;17114;52.314;8.910;2022-12-07T10:25:34;4.50;99.90
30308;DHT22;17114;52.314;8.910;2022-12-07T10:30:56;4.80;99.90
30308;DHT22;17114;52.314;8.910;2022-12-07T10:33:37;5.10;99.90
30308;DHT22;17114;52.314;8.910;2022-12-07T10:36:21;5.30;99.90
30308;DHT22;17114;52.314;8.910;2022-12-07T10:38:52;5.50;99.90
30308;DHT22;17114;52.314;8.910;2022-12-07T10:41:19;5.80;99.90
30308;DHT22;17114;52.314;8.910;2022-12-07T10:43:48;6.00;99.90
30308;DHT22;17114;52.314;8.910;2022-12-07T10:46:46;6.20;99.90
30308;DHT22;17114;52.314;8.910;2022-12-07T10:52:28;6.60;99.90
30308;DHT22;17114;52.314;8.910;2022-12-07T11:00:36;5.90;99.90
30308;DHT22;17114;52.314;8.910;2022-12-07T11:11:16;5.40;99.90
30308;DHT22;17114;52.314;8.910;2022-12-07T11:16:50;5.50;99.90
30308;DHT22;17114;52.314;8.910;2022-12-07T11:22:09;5.50;99.90
30308;DHT22;17114;52.314;8.910;2022-12-07T11:34:30;5.30;99.90
30308;DHT22;17114;52.314;8.910;2022-12-07T11:36:49;5.30;99.90
30308;DHT22;17114;52.314;8.910;2022-12-07T11:41:51;5.30;99.90
30308;DHT22;17114;52.314;8.910;2022-12-07T11:47:09;5.30;99.90
30308;DHT22;17114;52.314;8.910;2022-12-07T11:52:44;5.20;99.90
30308;DHT22;17114;52.314;8.910;2022-12-07T11:55:24;5.10;99.90
30308;DHT22;17114;52.314;8.910;2022-12-07T11:58:03;5.10;99.90
30308;DHT22;17114;52.314;8.910;2022-12-07T12:00:31;5.10;99.90
30308;DHT22;17114;52.314;8.910;2022-12-07T12:03:09;5.20;99.90
30308;DHT22;17114;52.314;8.910;2022-12-07T12:05:39;5.20;99.90
30308;DHT22;17114;52.314;8.910;2022-12-07T12:08:23;5.20;99.90
30308;DHT22;17114;52.314;8.910;2022-12-07T12:15:18;5.50;99.90
30308;DHT22;17114;52.314;8.910;2022-12-07T12:22:58;5.50;99.90
30308;DHT22;17114;52.314;8.910;2022-12-07T12:25:53;5.30;99.90
30308;DHT22;17114;52.314;8.910;2022-12-07T12:31:15;5.40;99.90
30308;DHT22;17114;52.314;8.910;2022-12-07T12:33:52;5.40;99.90
30308;DHT22;17114;52.314;8.910;2022-12-07T12:36:23;5.40;99.90
30308;DHT22;17114;52.314;8.910;2022-12-07T12:46:52;5.40;99.90
30308;DHT22;17114;52.314;8.910;2022-12-07T12:51:50;5.30;99.90
30308;DHT22;17114;52.314;8.910;2022-12-07T12:57:15;5.30;99.90
30308;DHT22;17114;52.314;8.910;2022-12-07T13:02:32;5.30;99.90
30308;DHT22;17114;52.314;8.910;2022-12-07T13:07:54;5.30;99.90
30308;DHT22;17114;52.314;8.910;2022-12-07T13:23:52;5.40;99.90
30308;DHT22;17114;52.314;8.910;2022-12-07T13:29:09;5.30;99.90
30308;DHT22;17114;52.314;8.910;2022-12-07T13:34:40;5.20;99.90
30308;DHT22;17114;52.314;8.910;2022-12-07T13:37:31;5.10;99.90
30308;DHT22;17114;52.314;8.910;2022-12-07T13:40:19;5.10;99.90
30308;DHT22;17114;52.314;8.910;2022-12-07T13:42:46;5.10;99.90
30308;DHT22;17114;52.314;8.910;2022-12-07T13:45:27;5.00;99.90
30308;DHT22;17114;52.314;8.910;2022-12-07T13:48:50;5.00;99.90
30308;DHT22;17114;52.314;8.910;2022-12-07T13:51:27;5.00;99.90
30308;DHT22;17114;52.314;8.910;2022-12-07T13:54:07;4.90;99.90
30308;DHT22;17114;52.314;8.910;2022-12-07T13:56:36;4.80;99.90
30308;DHT22;17114;52.314;8.910;2022-12-07T13:59:10;4.80;99.90
30308;DHT22;17114;52.314;8.910;2022-12-07T14:01:39;4.90;99.90
30308;DHT22;17114;52.314;8.910;2022-12-07T14:06:51;4.70;99.90
30308;DHT22;17114;52.314;8.910;2022-12-07T14:09:24;4.70;99.90
30308;DHT22;17114;52.314;8.910;2022-12-07T14:11:53;4.60;99.90
30308;DHT22;17114;52.314;8.910;2022-12-07T14:14:26;4.60;99.90
30308;DHT22;17114;52.314;8.910;2022-12-07T14:17:12;4.70;99.90
30308;DHT22;17114;52.314;8.910;2022-12-07T14:19:53;4.70;99.90
30308;DHT22;17114;52.314;8.910;2022-12-07T14:22:30;4.70;99.90
30308;DHT22;17114;52.314;8.910;2022-12-07T14:27:54;4.70;99.90
30308;DHT22;17114;52.314;8.910;2022-12-07T14:30:29;4.60;99.90
30308;DHT22;17114;52.314;8.910;2022-12-07T14:33:01;4.70;99.90
30308;DHT22;17114;52.314;8.910;2022-12-07T14:35:30;4.60;99.90
30308;DHT22;17114;52.314;8.910;2022-12-07T14:37:57;4.60;99.90
30308;DHT22;17114;52.314;8.910;2022-12-07T14:40:27;4.60;99.90
30308;DHT22;17114;52.314;8.910;2022-12-07T14:42:59;4.50;99.90
30308;DHT22;17114;52.314;8.910;2022-12-07T14:45:28;4.50;99.90
30308;DHT22;17114;52.314;8.910;2022-12-07T14:47:55;4.50;99.90
30308;DHT22;17114;52.314;8.910;2022-12-07T14:50:45;4.40;99.90
30308;DHT22;17114;52.314;8.910;2022-12-07T14:53:40;4.50;99.90
30308;DHT22;17114;52.314;8.910;2022-12-07T14:56:08;4.40;99.90
30308;DHT22;17114;52.314;8.910;2022-12-07T14:58:35;4.30;99.90
30308;DHT22;17114;52.314;8.910;2022-12-07T15:01:02;4.30;99.90
30308;DHT22;17114;52.314;8.910;2022-12-07T15:03:31;4.30;99.90
30308;DHT22;17114;52.314;8.910;2022-12-07T15:05:58;4.30;99.90
30308;DHT22;17114;52.314;8.910;2022-12-07T15:08:25;4.20;99.90
30308;DHT22;17114;52.314;8.910;2022-12-07T15:10:52;4.20;99.90
30308;DHT22;17114;52.314;8.910;2022-12-07T15:13:19;4.10;99.90
30308;DHT22;17114;52.314;8.910;2022-12-07T15:16:07;4.10;99.90
30308;DHT22;17114;52.314;8.910;2022-12-07T15:18:34;4.10;99.90
30308;DHT22;17114;52.314;8.910;2022-12-07T15:21:02;4.10;99.90
30308;DHT22;17114;52.314;8.910;2022-12-07T15:23:29;4.10;99.90
30308;DHT22;17114;52.314;8.910;2022-12-07T15:25:56;4.10;99.90
30308;DHT22;17114;52.314;8.910;2022-12-07T15:28:23;4.10;99.90
30308;DHT22;17114;52.314;8.910;2022-12-07T15:30:50;4.10;99.90
30308;DHT22;17114;52.314;8.910;2022-12-07T15:33:18;4.00;99.90
30308;DHT22;17114;52.314;8.910;2022-12-07T15:35:45;3.90;99.90
30308;DHT22;17114;52.314;8.910;2022-12-07T15:38:12;3.90;99.90
30308;DHT22;17114;52.314;8.910;2022-12-07T15:40:39;3.80;99.90
30308;DHT22;17114;52.314;8.910;2022-12-07T15:43:08;3.70;99.90
30308;DHT22;17114;52.314;8.910;2022-12-07T15:45:55;3.70;99.90
30308;DHT22;17114;52.314;8.910;2022-12-07T15:48:23;3.70;99.90
30308;DHT22;17114;52.314;8.910;2022-12-07T15:51:03;3.70;99.90
30308;DHT22;17114;52.314;8.910;2022-12-07T15:53:30;3.70;99.90
30308;DHT22;17114;52.314;8.910;2022-12-07T15:55:57;3.70;99.90
30308;DHT22;17114;52.314;8.910;2022-12-07T15:58:24;3.70;99.90
30308;DHT22;17114;52.314;8.910;2022-12-07T16:00:51;3.70;99.90
30308;DHT22;17114;52.314;8.910;2022-12-07T16:03:18;3.60;99.90
30308;DHT22;17114;52.314;8.910;2022-12-07T16:05:49;3.60;99.90
30308;DHT22;17114;52.314;8.910;2022-12-07T16:08:17;3.60;99.90
30308;DHT22;17114;52.314;8.910;2022-12-07T16:10:44;3.50;99.90
30308;DHT22;17114;52.314;8.910;2022-12-07T16:13:11;3.50;99.90
30308;DHT22;17114;52.314;8.910;2022-12-07T16:15:45;3.60;99.90
30308;DHT22;17114;52.314;8.910;2022-12-07T16:18:12;3.60;99.90
30308;DHT22;17114;52.314;8.910;2022-12-07T16:20:39;3.60;99.90
30308;DHT22;17114;52.314;8.910;2022-12-07T16:23:06;3.60;99.90
30308;DHT22;17114;52.314;8.910;2022-12-07T16:25:34;3.60;99.90
30308;DHT22;17114;52.314;8.910;2022-12-07T16:28:00;3.50;99.90
30308;DHT22;17114;52.314;8.910;2022-12-07T16:30:27;3.50;99.90
30308;DHT22;17114;52.314;8.910;2022-12-07T16:32:54;3.50;99.90
30308;DHT22;17114;52.314;8.910;2022-12-07T16:35:28;3.60;99.90
30308;DHT22;17114;52.314;8.910;2022-12-07T16:37:54;3.40;99.90
30308;DHT22;17114;52.314;8.910;2022-12-07T16:40:21;3.50;99.90
30308;DHT22;17114;52.314;8.910;2022-12-07T16:42:48;3.40;99.90
30308;DHT22;17114;52.314;8.910;2022-12-07T16:45:15;3.40;99.90
30308;DHT22;17114;52.314;8.910;2022-12-07T16:47:46;3.40;99.90
30308;DHT22;17114;52.314;8.910;2022-12-07T16:50:13;3.40;99.90
30308;DHT22;17114;52.314;8.910;2022-12-07T16:52:41;3.40;99.90
30308;DHT22;17114;52.314;8.910;2022-12-07T16:55:08;3.40;99.90
30308;DHT22;17114;52.314;8.910;2022-12-07T16:57:35;3.40;99.90
30308;DHT22;17114;52.314;8.910;2022-12-07T17:00:03;3.30;99.90
30308;DHT22;17114;52.314;8.910;2022-12-07T17:02:31;3.30;99.90
30308;DHT22;17114;52.314;8.910;2022-12-07T17:04:58;3.30;99.90
30308;DHT22;17114;52.314;8.910;2022-12-07T17:07:26;3.30;99.90
30308;DHT22;17114;52.314;8.910;2022-12-07T17:09:53;3.30;99.90
30308;DHT22;17114;52.314;8.910;2022-12-07T17:12:20;3.20;99.90
30308;DHT22;17114;52.314;8.910;2022-12-07T17:14:47;3.20;99.90
30308;DHT22;17114;52.314;8.910;2022-12-07T17:17:33;3.20;99.90
30308;DHT22;17114;52.314;8.910;2022-12-07T17:20:00;3.10;99.90
30308;DHT22;17114;52.314;8.910;2022-12-07T17:22:27;3.10;99.90
30308;DHT22;17114;52.314;8.910;2022-12-07T17:24:54;3.00;99.90
30308;DHT22;17114;52.314;8.910;2022-12-07T17:27:21;3.00;99.90
30308;DHT22;17114;52.314;8.910;2022-12-07T17:29:49;3.00;99.90
30308;DHT22;17114;52.314;8.910;2022-12-07T17:32:16;3.00;99.90
30308;DHT22;17114;52.314;8.910;2022-12-07T17:34:43;3.00;99.90
30308;DHT22;17114;52.314;8.910;2022-12-07T17:37:10;3.00;99.90
30308;DHT22;17114;52.314;8.910;2022-12-07T17:39:37;3.00;99.90
30308;DHT22;17114;52.314;8.910;2022-12-07T17:42:04;3.00;99.90
30308;DHT22;17114;52.314;8.910;2022-12-07T17:44:50;3.00;99.90
30308;DHT22;17114;52.314;8.910;2022-12-07T17:47:17;3.00;99.90
30308;DHT22;17114;52.314;8.910;2022-12-07T17:49:44;3.00;99.90
30308;DHT22;17114;52.314;8.910;2022-12-07T17:52:13;3.00;99.90
30308;DHT22;17114;52.314;8.910;2022-12-07T17:54:58;3.10;99.90
30308;DHT22;17114;52.314;8.910;2022-12-07T17:57:26;3.00;99.90
30308;DHT22;17114;52.314;8.910;2022-12-07T17:59:52;3.10;99.90
30308;DHT22;17114;52.314;8.910;2022-12-07T18:02:21;3.00;99.90
30308;DHT22;17114;52.314;8.910;2022-12-07T18:04:48;2.90;99.90
30308;DHT22;17114;52.314;8.910;2022-12-07T18:07:15;3.00;99.90
30308;DHT22;17114;52.314;8.910;2022-12-07T18:09:42;2.90;99.90
30308;DHT22;17114;52.314;8.910;2022-12-07T18:12:09;2.90;99.90
30308;DHT22;17114;52.314;8.910;2022-12-07T18:14:36;2.90;99.90
30308;DHT22;17114;52.314;8.910;2022-12-07T18:17:04;3.00;99.90
30308;DHT22;17114;52.314;8.910;2022-12-07T18:19:31;2.90;99.90
30308;DHT22;17114;52.314;8.910;2022-12-07T18:21:58;3.10;99.90
30308;DHT22;17114;52.314;8.910;2022-12-07T18:24:27;2.90;99.90